sensor_id;sensor_type;location;lat;lon;timestamp;temperature;humidity
35645;DHT22;21764;52.042;6.830;2022-07-23T00:02:34;17.40;99.90
35645;DHT22;21764;52.042;6.830;2022-07-23T00:07:34;17.40;99.90
35645;DHT22;21764;52.042;6.830;2022-07-23T00:12:35;17.40;99.90
35645;DHT22;21764;52.042;6.830;2022-07-23T00:17:36;17.30;99.90
35645;DHT22;21764;52.042;6.830;2022-07-23T00:22:46;17.30;99.90
35645;DHT22;21764;52.042;6.830;2022-07-23T00:27:47;17.30;99.90
35645;DHT22;21764;52.042;6.830;2022-07-23T00:32:53;17.30;99.90
35645;DHT22;21764;52.042;6.830;2022-07-23T00:37:54;17.20;99.90
35645;DHT22;21764;52.042;6.830;2022-07-23T00:42:55;17.20;99.90
35645;DHT22;21764;52.042;6.830;2022-07-23T00:47:57;17.00;99.90
35645;DHT22;21764;52.042;6.830;2022-07-23T00:52:57;16.90;99.90
35645;DHT22;21764;52.042;6.830;2022-07-23T00:57:58;16.70;99.90
35645;DHT22;21764;52.042;6.830;2022-07-23T01:02:59;16.50;99.90
35645;DHT22;21764;52.042;6.830;2022-07-23T01:08:00;16.30;99.90
35645;DHT22;21764;52.042;6.830;2022-07-23T01:13:09;16.10;99.90
35645;DHT22;21764;52.042;6.830;2022-07-23T01:18:10;16.00;99.90
35645;DHT22;21764;52.042;6.830;2022-07-23T01:23:13;15.80;99.90
35645;DHT22;21764;52.042;6.830;2022-07-23T01:28:13;15.70;99.90
35645;DHT22;21764;52.042;6.830;2022-07-23T01:33:14;15.60;99.90
35645;DHT22;21764;52.042;6.830;2022-07-23T01:38:15;15.50;99.90
35645;DHT22;21764;52.042;6.830;2022-07-23T01:43:15;15.40;99.90
35645;DHT22;21764;52.042;6.830;2022-07-23T01:48:16;15.40;99.90
35645;DHT22;21764;52.042;6.830;2022-07-23T01:53:17;15.30;99.90
35645;DHT22;21764;52.042;6.830;2022-07-23T01:58:18;15.20;99.90
35645;DHT22;21764;52.042;6.830;2022-07-23T02:03:19;15.20;99.90
35645;DHT22;21764;52.042;6.830;2022-07-23T02:08:20;15.20;99.90
35645;DHT22;21764;52.042;6.830;2022-07-23T02:13:22;15.40;99.90
35645;DHT22;21764;52.042;6.830;2022-07-23T02:18:22;15.60;99.90
35645;DHT22;21764;52.042;6.830;2022-07-23T02:23:23;15.50;99.90
35645;DHT22;21764;52.042;6.830;2022-07-23T02:28:24;15.60;99.90
35645;DHT22;21764;52.042;6.830;2022-07-23T02:33:24;15.60;99.90
35645;DHT22;21764;52.042;6.830;2022-07-23T02:38:25;15.60;99.90
35645;DHT22;21764;52.042;6.830;2022-07-23T02:43:26;15.50;99.90
35645;DHT22;21764;52.042;6.830;2022-07-23T02:48:26;15.50;99.90
35645;DHT22;21764;52.042;6.830;2022-07-23T02:53:27;15.20;99.90
35645;DHT22;21764;52.042;6.830;2022-07-23T02:58:28;15.00;99.90
35645;DHT22;21764;52.042;6.830;2022-07-23T03:03:29;15.00;99.90
35645;DHT22;21764;52.042;6.830;2022-07-23T03:08:29;14.90;99.90
35645;DHT22;21764;52.042;6.830;2022-07-23T03:13:30;15.10;99.90
35645;DHT22;21764;52.042;6.830;2022-07-23T03:18:31;15.00;99.90
35645;DHT22;21764;52.042;6.830;2022-07-23T03:23:31;14.80;99.90
35645;DHT22;21764;52.042;6.830;2022-07-23T03:28:32;14.70;99.90
35645;DHT22;21764;52.042;6.830;2022-07-23T03:33:33;14.60;99.90
35645;DHT22;21764;52.042;6.830;2022-07-23T03:38:33;14.50;99.90
35645;DHT22;21764;52.042;6.830;2022-07-23T03:43:34;14.40;99.90
35645;DHT22;21764;52.042;6.830;2022-07-23T03:48:35;14.40;99.90
35645;DHT22;21764;52.042;6.830;2022-07-23T03:53:36;14.40;99.90
35645;DHT22;21764;52.042;6.830;2022-07-23T03:58:36;14.40;99.90
35645;DHT22;21764;52.042;6.830;2022-07-23T04:03:37;14.40;99.90
35645;DHT22;21764;52.042;6.830;2022-07-23T04:08:38;14.50;99.90
35645;DHT22;21764;52.042;6.830;2022-07-23T04:13:39;14.80;99.90
35645;DHT22;21764;52.042;6.830;2022-07-23T04:18:40;15.20;99.90
35645;DHT22;21764;52.042;6.830;2022-07-23T04:23:40;15.60;99.90
35645;DHT22;21764;52.042;6.830;2022-07-23T04:28:41;16.10;99.90
35645;DHT22;21764;52.042;6.830;2022-07-23T04:33:42;16.80;99.90
35645;DHT22;21764;52.042;6.830;2022-07-23T04:38:42;17.80;99.90
35645;DHT22;21764;52.042;6.830;2022-07-23T04:43:43;18.50;99.90
35645;DHT22;21764;52.042;6.830;2022-07-23T04:48:44;19.30;99.90
35645;DHT22;21764;52.042;6.830;2022-07-23T04:53:44;20.20;99.90
35645;DHT22;21764;52.042;6.830;2022-07-23T04:58:45;21.20;99.90
35645;DHT22;21764;52.042;6.830;2022-07-23T05:03:45;22.00;99.90
35645;DHT22;21764;52.042;6.830;2022-07-23T05:08:48;23.10;99.90
35645;DHT22;21764;52.042;6.830;2022-07-23T05:13:49;24.10;99.90
35645;DHT22;21764;52.042;6.830;2022-07-23T05:18:49;25.10;98.60
35645;DHT22;21764;52.042;6.830;2022-07-23T05:23:50;26.00;96.10
35645;DHT22;21764;52.042;6.830;2022-07-23T05:28:51;26.70;93.50
35645;DHT22;21764;52.042;6.830;2022-07-23T05:33:52;27.10;92.50
35645;DHT22;21764;52.042;6.830;2022-07-23T05:38:52;28.10;90.30
35645;DHT22;21764;52.042;6.830;2022-07-23T05:43:53;28.80;86.40
35645;DHT22;21764;52.042;6.830;2022-07-23T05:48:54;30.20;80.60
35645;DHT22;21764;52.042;6.830;2022-07-23T05:53:55;30.50;77.00
35645;DHT22;21764;52.042;6.830;2022-07-23T05:58:55;31.30;74.00
35645;DHT22;21764;52.042;6.830;2022-07-23T06:03:56;31.50;71.70
35645;DHT22;21764;52.042;6.830;2022-07-23T06:08:57;32.60;67.30
35645;DHT22;21764;52.042;6.830;2022-07-23T06:13:57;34.30;62.50
35645;DHT22;21764;52.042;6.830;2022-07-23T06:18:58;35.10;59.20
35645;DHT22;21764;52.042;6.830;2022-07-23T06:23:59;35.00;58.10
35645;DHT22;21764;52.042;6.830;2022-07-23T06:28:59;35.90;55.20
35645;DHT22;21764;52.042;6.830;2022-07-23T06:34:00;36.60;54.20
35645;DHT22;21764;52.042;6.830;2022-07-23T06:39:01;36.50;52.80
35645;DHT22;21764;52.042;6.830;2022-07-23T06:44:02;35.40;53.90
35645;DHT22;21764;52.042;6.830;2022-07-23T06:49:02;36.00;51.20
35645;DHT22;21764;52.042;6.830;2022-07-23T06:54:04;38.60;49.60
35645;DHT22;21764;52.042;6.830;2022-07-23T06:59:05;39.90;47.30
35645;DHT22;21764;52.042;6.830;2022-07-23T07:04:06;40.20;45.90
35645;DHT22;21764;52.042;6.830;2022-07-23T07:09:07;40.30;44.80
35645;DHT22;21764;52.042;6.830;2022-07-23T07:14:08;41.40;43.60
35645;DHT22;21764;52.042;6.830;2022-07-23T07:19:08;41.10;43.00
35645;DHT22;21764;52.042;6.830;2022-07-23T07:24:09;41.70;41.70
35645;DHT22;21764;52.042;6.830;2022-07-23T07:29:10;42.90;40.80
35645;DHT22;21764;52.042;6.830;2022-07-23T07:34:11;43.90;39.00
35645;DHT22;21764;52.042;6.830;2022-07-23T07:39:11;43.30;38.50
35645;DHT22;21764;52.042;6.830;2022-07-23T07:44:12;43.80;37.30
35645;DHT22;21764;52.042;6.830;2022-07-23T07:49:13;43.40;37.00
35645;DHT22;21764;52.042;6.830;2022-07-23T07:54:14;38.90;41.00
35645;DHT22;21764;52.042;6.830;2022-07-23T07:59:14;35.70;43.30
35645;DHT22;21764;52.042;6.830;2022-07-23T08:04:15;41.40;39.60
35645;DHT22;21764;52.042;6.830;2022-07-23T08:09:15;43.60;36.60
35645;DHT22;21764;52.042;6.830;2022-07-23T08:14:16;43.00;37.60
35645;DHT22;21764;52.042;6.830;2022-07-23T08:19:17;44.10;36.10
35645;DHT22;21764;52.042;6.830;2022-07-23T08:24:18;46.00;34.70
35645;DHT22;21764;52.042;6.830;2022-07-23T08:29:18;46.30;33.20
35645;DHT22;21764;52.042;6.830;2022-07-23T08:34:19;46.90;33.30
35645;DHT22;21764;52.042;6.830;2022-07-23T08:39:19;46.50;33.20
35645;DHT22;21764;52.042;6.830;2022-07-23T08:44:20;45.50;32.80
35645;DHT22;21764;52.042;6.830;2022-07-23T08:49:21;44.60;33.90
35645;DHT22;21764;52.042;6.830;2022-07-23T08:54:22;45.80;32.80
35645;DHT22;21764;52.042;6.830;2022-07-23T08:59:23;45.90;32.50
35645;DHT22;21764;52.042;6.830;2022-07-23T09:04:24;46.30;32.30
35645;DHT22;21764;52.042;6.830;2022-07-23T09:09:25;46.40;32.20
35645;DHT22;21764;52.042;6.830;2022-07-23T09:19:42;45.00;32.30
35645;DHT22;21764;52.042;6.830;2022-07-23T09:25:12;45.50;32.00
35645;DHT22;21764;52.042;6.830;2022-07-23T09:30:25;46.10;31.60
35645;DHT22;21764;52.042;6.830;2022-07-23T09:35:51;46.40;31.70
35645;DHT22;21764;52.042;6.830;2022-07-23T09:41:10;47.70;30.90
35645;DHT22;21764;52.042;6.830;2022-07-23T09:46:21;44.70;31.30
35645;DHT22;21764;52.042;6.830;2022-07-23T09:51:24;46.00;30.60
35645;DHT22;21764;52.042;6.830;2022-07-23T09:56:37;41.80;33.70
35645;DHT22;21764;52.042;6.830;2022-07-23T10:01:39;44.70;33.00
35645;DHT22;21764;52.042;6.830;2022-07-23T10:06:41;47.60;31.40
35645;DHT22;21764;52.042;6.830;2022-07-23T10:11:43;40.40;36.90
35645;DHT22;21764;52.042;6.830;2022-07-23T10:16:44;43.10;33.90
35645;DHT22;21764;52.042;6.830;2022-07-23T10:21:51;46.00;32.00
35645;DHT22;21764;52.042;6.830;2022-07-23T10:42:33;44.10;32.50
35645;DHT22;21764;52.042;6.830;2022-07-23T10:47:35;43.20;32.90
35645;DHT22;21764;52.042;6.830;2022-07-23T10:52:48;42.70;34.10
35645;DHT22;21764;52.042;6.830;2022-07-23T10:58:05;41.70;33.90
35645;DHT22;21764;52.042;6.830;2022-07-23T11:03:30;35.00;39.10
35645;DHT22;21764;52.042;6.830;2022-07-23T11:08:32;30.40;48.20
35645;DHT22;21764;52.042;6.830;2022-07-23T11:13:46;28.60;52.20
35645;DHT22;21764;52.042;6.830;2022-07-23T11:23:57;27.50;55.20
35645;DHT22;21764;52.042;6.830;2022-07-23T11:39:36;27.70;55.00
35645;DHT22;21764;52.042;6.830;2022-07-23T11:44:38;27.50;55.40
35645;DHT22;21764;52.042;6.830;2022-07-23T11:49:58;27.50;56.20
35645;DHT22;21764;52.042;6.830;2022-07-23T11:55:05;27.60;56.40
35645;DHT22;21764;52.042;6.830;2022-07-23T12:00:08;26.90;57.20
35645;DHT22;21764;52.042;6.830;2022-07-23T12:05:14;26.40;58.40
35645;DHT22;21764;52.042;6.830;2022-07-23T12:10:18;26.90;57.10
35645;DHT22;21764;52.042;6.830;2022-07-23T12:15:22;26.60;57.70
35645;DHT22;21764;52.042;6.830;2022-07-23T12:20:29;26.20;58.60
35645;DHT22;21764;52.042;6.830;2022-07-23T12:25:40;26.70;57.40
35645;DHT22;21764;52.042;6.830;2022-07-23T12:30:45;26.70;57.70
35645;DHT22;21764;52.042;6.830;2022-07-23T12:35:46;26.90;58.40
35645;DHT22;21764;52.042;6.830;2022-07-23T12:40:50;26.90;58.30
35645;DHT22;21764;52.042;6.830;2022-07-23T12:51:09;26.40;58.50
35645;DHT22;21764;52.042;6.830;2022-07-23T12:56:26;26.40;59.10
35645;DHT22;21764;52.042;6.830;2022-07-23T13:01:28;26.40;59.40
35645;DHT22;21764;52.042;6.830;2022-07-23T13:06:34;26.50;59.10
35645;DHT22;21764;52.042;6.830;2022-07-23T13:11:35;26.30;59.20
35645;DHT22;21764;52.042;6.830;2022-07-23T13:16:36;26.40;59.60
35645;DHT22;21764;52.042;6.830;2022-07-23T13:21:37;26.40;59.50
35645;DHT22;21764;52.042;6.830;2022-07-23T13:26:38;26.20;59.80
35645;DHT22;21764;52.042;6.830;2022-07-23T13:31:38;26.00;60.30
35645;DHT22;21764;52.042;6.830;2022-07-23T13:36:39;26.10;60.30
35645;DHT22;21764;52.042;6.830;2022-07-23T13:41:40;26.20;59.40
35645;DHT22;21764;52.042;6.830;2022-07-23T13:46:40;26.00;59.80
35645;DHT22;21764;52.042;6.830;2022-07-23T13:51:41;26.00;60.80
35645;DHT22;21764;52.042;6.830;2022-07-23T13:56:42;26.20;60.50
35645;DHT22;21764;52.042;6.830;2022-07-23T14:01:43;26.00;59.90
35645;DHT22;21764;52.042;6.830;2022-07-23T14:06:44;26.00;60.80
35645;DHT22;21764;52.042;6.830;2022-07-23T14:11:45;26.10;60.90
35645;DHT22;21764;52.042;6.830;2022-07-23T14:16:46;26.20;60.30
35645;DHT22;21764;52.042;6.830;2022-07-23T14:21:46;26.50;58.30
35645;DHT22;21764;52.042;6.830;2022-07-23T14:26:49;26.70;59.10
35645;DHT22;21764;52.042;6.830;2022-07-23T14:31:49;26.70;60.30
35645;DHT22;21764;52.042;6.830;2022-07-23T14:36:50;26.30;60.10
35645;DHT22;21764;52.042;6.830;2022-07-23T14:41:51;26.70;61.10
35645;DHT22;21764;52.042;6.830;2022-07-23T14:46:52;26.80;58.60
35645;DHT22;21764;52.042;6.830;2022-07-23T14:51:53;26.80;59.40
35645;DHT22;21764;52.042;6.830;2022-07-23T14:56:55;26.10;60.50
35645;DHT22;21764;52.042;6.830;2022-07-23T15:01:56;26.30;61.40
35645;DHT22;21764;52.042;6.830;2022-07-23T15:07:02;26.60;60.70
35645;DHT22;21764;52.042;6.830;2022-07-23T15:12:04;26.80;59.50
35645;DHT22;21764;52.042;6.830;2022-07-23T15:17:04;27.10;58.60
35645;DHT22;21764;52.042;6.830;2022-07-23T15:22:05;27.10;58.80
35645;DHT22;21764;52.042;6.830;2022-07-23T15:27:07;26.80;59.50
35645;DHT22;21764;52.042;6.830;2022-07-23T15:32:07;26.70;59.70
35645;DHT22;21764;52.042;6.830;2022-07-23T15:37:08;26.60;60.50
35645;DHT22;21764;52.042;6.830;2022-07-23T15:42:09;26.20;62.00
35645;DHT22;21764;52.042;6.830;2022-07-23T15:47:15;26.40;60.90
35645;DHT22;21764;52.042;6.830;2022-07-23T15:52:16;26.50;60.40
35645;DHT22;21764;52.042;6.830;2022-07-23T15:57:17;26.40;61.50
35645;DHT22;21764;52.042;6.830;2022-07-23T16:02:17;26.50;61.80
35645;DHT22;21764;52.042;6.830;2022-07-23T16:07:19;26.30;62.30
35645;DHT22;21764;52.042;6.830;2022-07-23T16:12:20;26.10;63.80
35645;DHT22;21764;52.042;6.830;2022-07-23T16:17:20;25.90;62.90
35645;DHT22;21764;52.042;6.830;2022-07-23T16:22:21;25.70;64.30
35645;DHT22;21764;52.042;6.830;2022-07-23T16:27:22;25.60;63.30
35645;DHT22;21764;52.042;6.830;2022-07-23T16:32:22;26.00;63.70
35645;DHT22;21764;52.042;6.830;2022-07-23T16:37:24;26.00;63.40
35645;DHT22;21764;52.042;6.830;2022-07-23T16:42:25;26.20;63.20
35645;DHT22;21764;52.042;6.830;2022-07-23T16:47:26;26.30;63.00
35645;DHT22;21764;52.042;6.830;2022-07-23T16:52:26;25.60;63.10
35645;DHT22;21764;52.042;6.830;2022-07-23T16:57:27;25.90;64.50
35645;DHT22;21764;52.042;6.830;2022-07-23T17:02:28;26.00;63.90
35645;DHT22;21764;52.042;6.830;2022-07-23T17:07:29;26.00;64.40
35645;DHT22;21764;52.042;6.830;2022-07-23T17:12:29;26.00;64.20
35645;DHT22;21764;52.042;6.830;2022-07-23T17:17:30;26.10;63.30
35645;DHT22;21764;52.042;6.830;2022-07-23T17:22:31;26.00;63.60
35645;DHT22;21764;52.042;6.830;2022-07-23T17:27:31;25.30;65.50
35645;DHT22;21764;52.042;6.830;2022-07-23T17:32:32;25.40;65.00
35645;DHT22;21764;52.042;6.830;2022-07-23T17:37:33;25.30;65.50
35645;DHT22;21764;52.042;6.830;2022-07-23T17:42:34;25.00;66.80
35645;DHT22;21764;52.042;6.830;2022-07-23T17:47:35;24.70;68.30
35645;DHT22;21764;52.042;6.830;2022-07-23T17:52:53;24.60;68.80
35645;DHT22;21764;52.042;6.830;2022-07-23T17:57:54;24.50;69.90
35645;DHT22;21764;52.042;6.830;2022-07-23T18:02:55;24.30;70.20
35645;DHT22;21764;52.042;6.830;2022-07-23T18:07:55;24.10;71.50
35645;DHT22;21764;52.042;6.830;2022-07-23T18:12:57;23.80;73.00
35645;DHT22;21764;52.042;6.830;2022-07-23T18:17:58;23.60;74.40
35645;DHT22;21764;52.042;6.830;2022-07-23T18:22:58;23.40;75.20
35645;DHT22;21764;52.042;6.830;2022-07-23T18:27:59;23.10;76.10
35645;DHT22;21764;52.042;6.830;2022-07-23T18:33:00;22.90;77.30
35645;DHT22;21764;52.042;6.830;2022-07-23T18:38:01;22.90;78.70
35645;DHT22;21764;52.042;6.830;2022-07-23T18:43:01;22.80;80.40
35645;DHT22;21764;52.042;6.830;2022-07-23T18:48:02;22.70;81.40
35645;DHT22;21764;52.042;6.830;2022-07-23T18:53:03;22.50;83.30
35645;DHT22;21764;52.042;6.830;2022-07-23T18:58:06;22.40;83.60
35645;DHT22;21764;52.042;6.830;2022-07-23T19:03:06;22.40;85.20
35645;DHT22;21764;52.042;6.830;2022-07-23T19:08:07;22.30;86.30
35645;DHT22;21764;52.042;6.830;2022-07-23T19:13:08;22.30;86.70
35645;DHT22;21764;52.042;6.830;2022-07-23T19:18:09;22.00;88.90
35645;DHT22;21764;52.042;6.830;2022-07-23T19:23:09;21.80;90.80
35645;DHT22;21764;52.042;6.830;2022-07-23T19:28:10;21.60;91.90
35645;DHT22;21764;52.042;6.830;2022-07-23T19:33:12;21.40;92.80
35645;DHT22;21764;52.042;6.830;2022-07-23T19:38:14;21.30;93.80
35645;DHT22;21764;52.042;6.830;2022-07-23T19:43:15;21.20;95.10
35645;DHT22;21764;52.042;6.830;2022-07-23T19:48:15;21.00;96.40
35645;DHT22;21764;52.042;6.830;2022-07-23T19:53:16;20.90;97.50
35645;DHT22;21764;52.042;6.830;2022-07-23T19:58:17;20.80;99.40
35645;DHT22;21764;52.042;6.830;2022-07-23T20:03:17;20.60;99.90
35645;DHT22;21764;52.042;6.830;2022-07-23T20:08:19;20.40;99.90
35645;DHT22;21764;52.042;6.830;2022-07-23T20:13:20;20.30;99.90
35645;DHT22;21764;52.042;6.830;2022-07-23T20:18:20;20.20;99.90
35645;DHT22;21764;52.042;6.830;2022-07-23T20:23:21;20.00;99.90
35645;DHT22;21764;52.042;6.830;2022-07-23T20:28:27;19.90;99.90
35645;DHT22;21764;52.042;6.830;2022-07-23T20:33:31;19.80;99.90
35645;DHT22;21764;52.042;6.830;2022-07-23T20:38:32;19.80;99.90
35645;DHT22;21764;52.042;6.830;2022-07-23T20:43:33;19.70;99.90
35645;DHT22;21764;52.042;6.830;2022-07-23T20:48:34;19.50;99.90
35645;DHT22;21764;52.042;6.830;2022-07-23T20:53:34;19.40;99.90
35645;DHT22;21764;52.042;6.830;2022-07-23T20:58:35;19.40;99.90
35645;DHT22;21764;52.042;6.830;2022-07-23T21:03:36;19.30;99.90
35645;DHT22;21764;52.042;6.830;2022-07-23T21:08:37;19.20;99.90
35645;DHT22;21764;52.042;6.830;2022-07-23T21:13:37;19.00;99.90
35645;DHT22;21764;52.042;6.830;2022-07-23T21:18:38;18.90;99.90
35645;DHT22;21764;52.042;6.830;2022-07-23T21:23:41;18.80;99.90
35645;DHT22;21764;52.042;6.830;2022-07-23T21:28:42;18.80;99.90
35645;DHT22;21764;52.042;6.830;2022-07-23T21:33:43;18.70;99.90
35645;DHT22;21764;52.042;6.830;2022-07-23T21:38:45;18.60;99.90
35645;DHT22;21764;52.042;6.830;2022-07-23T21:43:45;18.50;99.90
35645;DHT22;21764;52.042;6.830;2022-07-23T21:48:46;18.40;99.90
35645;DHT22;21764;52.042;6.830;2022-07-23T21:53:47;18.30;99.90
35645;DHT22;21764;52.042;6.830;2022-07-23T21:58:47;18.20;99.90
35645;DHT22;21764;52.042;6.830;2022-07-23T22:03:48;18.30;99.90
35645;DHT22;21764;52.042;6.830;2022-07-23T22:09:04;18.20;99.90
35645;DHT22;21764;52.042;6.830;2022-07-23T22:14:44;18.20;99.90
35645;DHT22;21764;52.042;6.830;2022-07-23T22:26:10;18.00;99.90
35645;DHT22;21764;52.042;6.830;2022-07-23T22:31:19;18.10;99.90
35645;DHT22;21764;52.042;6.830;2022-07-23T22:53:04;17.80;99.90
35645;DHT22;21764;52.042;6.830;2022-07-23T22:58:05;17.70;99.90
35645;DHT22;21764;52.042;6.830;2022-07-23T23:03:06;17.80;99.90
35645;DHT22;21764;52.042;6.830;2022-07-23T23:08:09;17.60;99.90
35645;DHT22;21764;52.042;6.830;2022-07-23T23:13:10;17.60;99.90
35645;DHT22;21764;52.042;6.830;2022-07-23T23:18:10;17.50;99.90
35645;DHT22;21764;52.042;6.830;2022-07-23T23:23:11;17.70;99.90
35645;DHT22;21764;52.042;6.830;2022-07-23T23:28:11;17.60;99.90
35645;DHT22;21764;52.042;6.830;2022-07-23T23:33:12;17.80;99.90
35645;DHT22;21764;52.042;6.830;2022-07-23T23:38:13;17.60;99.90
35645;DHT22;21764;52.042;6.830;2022-07-23T23:43:14;17.70;99.90
35645;DHT22;21764;52.042;6.830;2022-07-23T23:48:14;17.50;99.90
35645;DHT22;21764;52.042;6.830;2022-07-23T23:53:15;17.50;99.90
35645;DHT22;21764;52.042;6.830;2022-07-23T23:58:16;17.50;99.90
